Time;durP1;ratioP1;P1;durP2;ratioP2;P2;SDS_P1;SDS_P2;PMS_P1;PMS_P2;Temp;Humidity;BMP_temperature;BMP_pressure;BME280_temperature;BME280_humidity;BME280_pressure;Samples;Min_cycle;Max_cycle;Signal;HPM_P1;HPM_P2
2020/12/17 00:00:15;;;;;;;172.95;56.72;;;;;;;;;;5094059;28;20110;-72
2020/12/17 00:02:41;;;;;;;151.07;57.70;;;;;;;;;;5093957;28;20051;-71
2020/12/17 00:05:08;;;;;;;171.27;63.95;;;;;;;;;;5094394;28;20346;-71
2020/12/17 00:07:34;;;;;;;161.80;57.60;;;;;;;;;;5095180;28;20066;-71
2020/12/17 00:10:00;;;;;;;151.25;54.10;;;;;;;;;;5095342;28;20028;-71
2020/12/17 00:12:26;;;;;;;154.98;54.67;;;;;;;;;;5095335;28;20056;-71
2020/12/17 00:14:52;;;;;;;171.70;57.58;;;;;;;;;;5093893;28;20487;-72
2020/12/17 00:17:18;;;;;;;162.38;58.38;;;;;;;;;;5094537;28;20479;-71
2020/12/17 00:19:44;;;;;;;160.27;54.72;;;;;;;;;;5094370;28;20027;-74
2020/12/17 00:22:10;;;;;;;182.40;61.50;;;;;;;;;;5092950;28;20036;-73
2020/12/17 00:24:37;;;;;;;186.50;64.93;;;;;;;;;;5093215;28;20034;-70
2020/12/17 00:27:03;;;;;;;188.68;64.50;;;;;;;;;;5093439;28;20031;-71
2020/12/17 00:29:29;;;;;;;192.55;60.10;;;;;;;;;;5093963;28;20012;-71
2020/12/17 00:31:55;;;;;;;183.02;61.50;;;;;;;;;;5093866;28;20042;-70
2020/12/17 00:34:21;;;;;;;180.32;60.35;;;;;;;;;;5093298;28;20023;-72
2020/12/17 00:36:48;;;;;;;193.25;57.65;;;;;;;;;;5092833;28;20024;-71
2020/12/17 00:39:14;;;;;;;164.32;56.40;;;;;;;;;;5092811;28;20024;-71
2020/12/17 00:41:40;;;;;;;169.85;62.47;;;;;;;;;;5093134;28;20028;-72
2020/12/17 00:44:08;;;;;;;160.93;59.63;;;;;;;;;;5092533;28;20023;-72
2020/12/17 00:46:34;;;;;;;174.82;62.97;;;;;;;;;;5093175;28;20095;-72
2020/12/17 00:49:00;;;;;;;182.13;63.35;;;;;;;;;;5092632;28;20031;-71
2020/12/17 00:51:26;;;;;;;192.90;66.53;;;;;;;;;;5092302;28;20016;-71
2020/12/17 00:53:52;;;;;;;189.90;61.70;;;;;;;;;;5093021;28;20016;-71
2020/12/17 00:56:18;;;;;;;166.52;59.17;;;;;;;;;;5092628;28;20360;-73
2020/12/17 00:58:45;;;;;;;161.52;53.70;;;;;;;;;;5092599;28;20080;-72
2020/12/17 01:01:11;;;;;;;169.45;53.55;;;;;;;;;;5094447;28;20016;-72
2020/12/17 01:03:37;;;;;;;172.57;59.08;;;;;;;;;;5092823;28;20012;-73
2020/12/17 01:06:06;;;;;;;180.05;51.40;;;;;;;;;;5094151;28;20020;-73
2020/12/17 01:08:34;;;;;;;173.57;55.38;;;;;;;;;;5093786;28;20368;-73
2020/12/17 01:11:00;;;;;;;178.38;57.53;;;;;;;;;;5093232;28;20337;-71
2020/12/17 01:13:26;;;;;;;170.10;55.90;;;;;;;;;;5092182;28;20024;-71
2020/12/17 01:15:52;;;;;;;159.65;52.45;;;;;;;;;;5093726;28;20376;-71
2020/12/17 01:18:18;;;;;;;161.75;51.13;;;;;;;;;;5092337;28;20028;-71
2020/12/17 01:20:44;;;;;;;152.82;47.40;;;;;;;;;;5094259;28;20024;-71
2020/12/17 01:23:10;;;;;;;150.80;44.80;;;;;;;;;;5093627;28;20040;-71
2020/12/17 01:25:36;;;;;;;153.25;53.33;;;;;;;;;;5092328;28;20020;-72
2020/12/17 01:28:02;;;;;;;155.82;49.03;;;;;;;;;;5094178;28;20028;-73
2020/12/17 01:30:28;;;;;;;186.38;65.38;;;;;;;;;;5093412;28;20065;-70
2020/12/17 01:32:55;;;;;;;181.15;60.75;;;;;;;;;;5093570;28;20027;-72
2020/12/17 01:35:21;;;;;;;164.43;52.67;;;;;;;;;;5094085;28;20066;-71
2020/12/17 01:37:47;;;;;;;153.98;47.03;;;;;;;;;;5092439;28;20024;-71
2020/12/17 01:40:13;;;;;;;156.00;46.63;;;;;;;;;;5092144;28;20115;-70
2020/12/17 01:42:39;;;;;;;147.45;46.90;;;;;;;;;;5093539;28;20091;-71
2020/12/17 01:45:05;;;;;;;157.98;48.17;;;;;;;;;;5094273;28;20047;-72
2020/12/17 01:47:34;;;;;;;163.55;48.70;;;;;;;;;;5093139;28;20360;-72
2020/12/17 01:50:01;;;;;;;151.55;46.40;;;;;;;;;;5093433;28;20372;-71
2020/12/17 01:52:27;;;;;;;158.07;50.58;;;;;;;;;;5093670;28;20448;-72
2020/12/17 01:54:54;;;;;;;159.43;55.33;;;;;;;;;;5091994;28;20039;-72
2020/12/17 01:57:21;;;;;;;167.75;57.13;;;;;;;;;;5093725;28;20028;-71
2020/12/17 01:59:47;;;;;;;;;;;;;;;;;;5092512;28;20024;-72
2020/12/17 02:02:15;;;;;;;161.98;48.92;;;;;;;;;;5094792;28;20252;-71
2020/12/17 02:04:42;;;;;;;144.90;46.00;;;;;;;;;;5095873;28;20015;-73
2020/12/17 02:07:08;;;;;;;158.00;46.93;;;;;;;;;;5095884;28;20452;-72
2020/12/17 02:09:35;;;;;;;136.80;45.97;;;;;;;;;;5095867;28;20020;-72
2020/12/17 02:12:01;;;;;;;147.68;49.47;;;;;;;;;;5095972;28;20107;-72
2020/12/17 02:14:27;;;;;;;135.05;44.25;;;;;;;;;;5112211;28;20022;-72
2020/12/17 02:16:54;;;;;;;134.15;44.80;;;;;;;;;;5095836;28;20028;-71
2020/12/17 02:19:21;;;;;;;136.15;45.60;;;;;;;;;;5095580;28;20472;-71
2020/12/17 02:21:47;;;;;;;126.25;45.33;;;;;;;;;;5095327;28;20025;-71
2020/12/17 02:24:13;;;;;;;146.05;44.33;;;;;;;;;;5095877;28;20023;-71
2020/12/17 02:26:40;;;;;;;339.60;128.33;;;;;;;;;;5095802;28;20055;-71
2020/12/17 02:29:06;;;;;;;254.18;95.78;;;;;;;;;;5096152;28;20035;-71
2020/12/17 02:31:36;;;;;;;206.68;69.55;;;;;;;;;;5095576;28;20020;-69
2020/12/17 02:34:02;;;;;;;195.43;73.78;;;;;;;;;;5096191;28;20457;-69
2020/12/17 02:36:28;;;;;;;161.05;52.15;;;;;;;;;;5095158;28;20074;-70
2020/12/17 02:38:54;;;;;;;173.95;59.22;;;;;;;;;;5095669;28;20020;-70
2020/12/17 02:41:20;;;;;;;135.68;41.65;;;;;;;;;;5095344;28;20048;-70
2020/12/17 02:43:46;;;;;;;161.82;54.60;;;;;;;;;;5096444;28;20099;-70
2020/12/17 02:46:12;;;;;;;160.88;45.80;;;;;;;;;;5096100;28;20364;-72
2020/12/17 02:48:38;;;;;;;148.77;42.90;;;;;;;;;;5094687;28;20089;-70
2020/12/17 02:51:04;;;;;;;134.98;46.42;;;;;;;;;;5096229;28;20457;-71
2020/12/17 02:53:31;;;;;;;136.35;47.50;;;;;;;;;;5095093;28;20020;-72
2020/12/17 02:55:57;;;;;;;127.43;44.85;;;;;;;;;;5095910;28;20020;-72
2020/12/17 02:58:23;;;;;;;143.98;49.35;;;;;;;;;;5095029;28;20028;-71
2020/12/17 03:00:49;;;;;;;130.57;41.90;;;;;;;;;;5095120;28;20020;-72
2020/12/17 03:03:16;;;;;;;130.20;46.75;;;;;;;;;;5094772;28;20020;-72
2020/12/17 03:05:42;;;;;;;129.07;44.20;;;;;;;;;;5096895;28;20055;-73
2020/12/17 03:08:08;;;;;;;115.55;38.58;;;;;;;;;;5096367;28;20162;-72
2020/12/17 03:10:34;;;;;;;120.35;41.75;;;;;;;;;;5094643;28;20020;-71
2020/12/17 03:13:00;;;;;;;124.22;43.90;;;;;;;;;;5094471;28;20020;-71
2020/12/17 03:15:27;;;;;;;117.40;41.22;;;;;;;;;;5094900;28;20078;-71
2020/12/17 03:17:53;;;;;;;114.53;41.17;;;;;;;;;;5095546;28;20028;-71
2020/12/17 03:20:19;;;;;;;117.65;41.45;;;;;;;;;;5094606;28;20043;-71
2020/12/17 03:22:45;;;;;;;122.40;39.47;;;;;;;;;;5095983;28;20473;-71
2020/12/17 03:25:11;;;;;;;117.88;40.38;;;;;;;;;;5095634;28;20016;-72
2020/12/17 03:27:38;;;;;;;132.95;41.78;;;;;;;;;;5094412;28;20130;-72
2020/12/17 03:30:05;;;;;;;133.07;46.30;;;;;;;;;;5094445;28;20016;-73
2020/12/17 03:32:31;;;;;;;;;;;;;;;;;;5094662;28;20021;-71
2020/12/17 03:34:57;;;;;;;137.65;43.65;;;;;;;;;;5096008;28;20298;-72
2020/12/17 03:37:23;;;;;;;166.05;64.57;;;;;;;;;;5094328;28;20085;-72
2020/12/17 03:39:50;;;;;;;167.45;58.10;;;;;;;;;;5093851;28;20043;-72
2020/12/17 03:42:17;;;;;;;149.07;62.53;;;;;;;;;;5095406;28;20457;-71
2020/12/17 03:44:43;;;;;;;126.35;48.53;;;;;;;;;;5094978;28;20020;-71
2020/12/17 03:47:09;;;;;;;145.98;56.20;;;;;;;;;;5093899;28;20024;-71
2020/12/17 03:49:35;;;;;;;143.57;46.95;;;;;;;;;;5094163;28;20027;-71
2020/12/17 03:52:01;;;;;;;144.75;56.10;;;;;;;;;;5095336;28;20043;-71
2020/12/17 03:54:28;;;;;;;135.88;44.75;;;;;;;;;;5094054;28;20077;-73
2020/12/17 03:56:54;;;;;;;142.20;44.47;;;;;;;;;;5095050;28;20043;-71
2020/12/17 03:59:20;;;;;;;128.30;43.08;;;;;;;;;;5093646;28;20027;-72
2020/12/17 04:01:46;;;;;;;133.40;40.70;;;;;;;;;;5095519;28;20024;-70
2020/12/17 04:04:12;;;;;;;122.97;38.55;;;;;;;;;;5094468;28;20074;-72
2020/12/17 04:06:38;;;;;;;127.97;39.17;;;;;;;;;;5093625;28;20024;-71
2020/12/17 04:09:04;;;;;;;135.75;39.25;;;;;;;;;;5094007;28;20382;-72
2020/12/17 04:11:30;;;;;;;130.00;42.15;;;;;;;;;;5094186;28;20047;-72
2020/12/17 04:13:56;;;;;;;117.60;37.17;;;;;;;;;;5094793;28;20074;-72
2020/12/17 04:16:23;;;;;;;107.47;38.83;;;;;;;;;;5095235;28;20356;-71
2020/12/17 04:18:49;;;;;;;101.32;37.15;;;;;;;;;;5093639;28;20022;-72
2020/12/17 04:21:15;;;;;;;112.45;41.88;;;;;;;;;;5093288;28;20031;-72
2020/12/17 04:23:41;;;;;;;106.47;35.63;;;;;;;;;;5092567;28;20039;-70
2020/12/17 04:26:11;;;;;;;115.15;37.58;;;;;;;;;;5093245;28;20016;-71
2020/12/17 04:28:37;;;;;;;132.50;40.75;;;;;;;;;;5093241;28;20020;-71
2020/12/17 04:31:03;;;;;;;117.45;39.45;;;;;;;;;;5093455;28;20020;-71
2020/12/17 04:33:30;;;;;;;147.43;46.88;;;;;;;;;;5092792;28;20027;-70
2020/12/17 04:35:56;;;;;;;152.07;45.65;;;;;;;;;;5093323;28;20365;-71
2020/12/17 04:38:22;;;;;;;168.90;48.20;;;;;;;;;;5092955;28;20029;-71
2020/12/17 04:40:48;;;;;;;169.18;45.63;;;;;;;;;;5092924;28;20034;-72
2020/12/17 04:43:14;;;;;;;168.98;55.72;;;;;;;;;;5092999;28;20020;-72
2020/12/17 04:45:41;;;;;;;161.60;51.00;;;;;;;;;;5093163;28;20020;-71
2020/12/17 04:48:07;;;;;;;169.23;65.07;;;;;;;;;;5093042;28;20460;-71
2020/12/17 04:50:34;;;;;;;170.83;54.03;;;;;;;;;;5094549;28;20348;-72
2020/12/17 04:53:04;;;;;;;184.50;63.67;;;;;;;;;;5093084;28;20102;-72
2020/12/17 04:55:31;;;;;;;191.10;74.13;;;;;;;;;;5092961;28;20016;-72
2020/12/17 04:57:58;;;;;;;189.05;71.90;;;;;;;;;;5092879;28;20028;-72
2020/12/17 05:00:24;;;;;;;146.80;40.53;;;;;;;;;;5092462;28;20039;-70
2020/12/17 05:02:54;;;;;;;142.38;45.63;;;;;;;;;;5091726;28;20023;-70
2020/12/17 05:05:20;;;;;;;178.90;57.42;;;;;;;;;;5092261;28;20117;-71
2020/12/17 05:07:47;;;;;;;145.60;47.33;;;;;;;;;;5091907;28;20468;-71
2020/12/17 05:10:13;;;;;;;138.38;37.30;;;;;;;;;;5090393;28;20032;-71
2020/12/17 05:12:39;;;;;;;146.23;50.17;;;;;;;;;;5092284;28;20012;-70
2020/12/17 05:15:05;;;;;;;162.27;60.38;;;;;;;;;;5092304;28;20071;-70
2020/12/17 05:17:31;;;;;;;154.52;47.53;;;;;;;;;;5093679;28;20334;-70
2020/12/17 05:19:58;;;;;;;137.77;41.95;;;;;;;;;;5092483;28;20024;-71
2020/12/17 05:22:24;;;;;;;128.50;41.83;;;;;;;;;;5092356;28;20055;-71
2020/12/17 05:24:51;;;;;;;152.82;43.10;;;;;;;;;;5092413;28;20114;-71
2020/12/17 05:27:17;;;;;;;201.10;66.18;;;;;;;;;;5093901;28;20051;-73
2020/12/17 05:29:43;;;;;;;423.10;174.02;;;;;;;;;;5092005;28;20049;-72
2020/12/17 05:32:11;;;;;;;277.92;118.80;;;;;;;;;;5092569;28;20452;-72
2020/12/17 05:34:37;;;;;;;254.80;106.07;;;;;;;;;;5093132;28;20020;-72
2020/12/17 05:37:06;;;;;;;158.20;57.33;;;;;;;;;;5095593;28;20024;-73
2020/12/17 05:39:33;;;;;;;188.48;70.63;;;;;;;;;;5096411;28;20028;-72
2020/12/17 05:41:59;;;;;;;131.30;38.00;;;;;;;;;;5096700;28;20364;-73
2020/12/17 05:44:29;;;;;;;134.70;39.95;;;;;;;;;;5097581;28;20043;-71
2020/12/17 05:46:56;;;;;;;116.68;35.15;;;;;;;;;;5097432;28;20023;-71
2020/12/17 05:49:25;;;;;;;128.77;41.22;;;;;;;;;;5096568;28;20016;-71
2020/12/17 05:52:08;;;;;;;130.50;39.75;;;;;;;;;;5097443;28;20020;-72
2020/12/17 05:54:34;;;;;;;96.50;32.33;;;;;;;;;;5096825;28;20064;-72
2020/12/17 05:57:05;;;;;;;100.53;31.27;;;;;;;;;;5097326;28;20354;-72
2020/12/17 05:59:31;;;;;;;108.18;33.70;;;;;;;;;;5095690;28;20081;-73
2020/12/17 06:01:57;;;;;;;90.72;28.23;;;;;;;;;;5097550;28;20020;-71
2020/12/17 06:04:23;;;;;;;107.90;30.13;;;;;;;;;;5097623;28;20015;-71
2020/12/17 06:06:50;;;;;;;166.20;67.85;;;;;;;;;;5096423;28;20028;-71
2020/12/17 06:09:23;;;;;;;201.48;95.90;;;;;;;;;;5095941;28;20020;-71
2020/12/17 06:11:50;;;;;;;310.45;144.95;;;;;;;;;;5095764;28;20016;-72
2020/12/17 06:14:20;;;;;;;303.52;164.27;;;;;;;;;;5096269;28;20364;-71
2020/12/17 06:16:51;;;;;;;162.10;70.28;;;;;;;;;;5095933;28;20097;-76
2020/12/17 06:19:20;;;;;;;187.45;84.43;;;;;;;;;;5096155;28;20020;-75
2020/12/17 06:21:46;;;;;;;144.77;54.53;;;;;;;;;;5096556;28;20020;-74
2020/12/17 06:24:13;;;;;;;155.82;57.42;;;;;;;;;;5096102;28;20023;-74
2020/12/17 06:26:40;;;;;;;148.25;51.20;;;;;;;;;;5095748;28;20540;-75
2020/12/17 06:29:23;;;;;;;136.20;46.40;;;;;;;;;;5096322;28;20031;-74
2020/12/17 06:31:57;;;;;;;127.90;35.80;;;;;;;;;;5097367;28;20111;-74
2020/12/17 06:34:23;;;;;;;137.75;42.97;;;;;;;;;;5095452;28;20518;-70
2020/12/17 06:36:51;;;;;;;127.57;40.13;;;;;;;;;;5095523;28;20077;-72
2020/12/17 06:39:18;;;;;;;119.18;38.15;;;;;;;;;;5095632;28;20016;-71
2020/12/17 06:41:45;;;;;;;132.15;39.67;;;;;;;;;;5096774;28;20356;-71
2020/12/17 06:44:30;;;;;;;110.22;36.38;;;;;;;;;;5095870;28;20158;-72
2020/12/17 06:46:57;;;;;;;115.05;34.88;;;;;;;;;;5095157;28;20461;-70
2020/12/17 06:49:25;;;;;;;127.03;37.03;;;;;;;;;;5094551;28;20020;-70
2020/12/17 06:52:18;;;;;;;122.85;38.15;;;;;;;;;;5096038;28;20384;-71
2020/12/17 06:54:44;;;;;;;141.27;38.25;;;;;;;;;;5091730;28;20039;-71
2020/12/17 06:57:11;;;;;;;115.00;36.03;;;;;;;;;;5095211;28;20051;-69
2020/12/17 06:59:38;;;;;;;123.38;43.20;;;;;;;;;;5095203;28;20456;-74
2020/12/17 07:02:05;;;;;;;146.13;66.22;;;;;;;;;;5094708;28;20372;-72
2020/12/17 07:04:34;;;;;;;195.48;93.18;;;;;;;;;;5094804;28;20073;-73
2020/12/17 07:07:10;;;;;;;127.35;47.58;;;;;;;;;;5096149;28;20016;-74
2020/12/17 07:09:36;;;;;;;99.07;37.15;;;;;;;;;;5094337;28;20057;-77
2020/12/17 07:12:02;;;;;;;111.80;36.53;;;;;;;;;;5095256;28;20107;-76
2020/12/17 07:14:28;;;;;;;111.30;41.50;;;;;;;;;;5095943;28;20019;-75
2020/12/17 07:16:57;;;;;;;121.10;43.20;;;;;;;;;;5094868;28;20145;-76
2020/12/17 07:19:27;;;;;;;115.13;44.05;;;;;;;;;;5095592;28;20445;-75
2020/12/17 07:21:56;;;;;;;111.93;40.28;;;;;;;;;;5094592;28;20039;-76
2020/12/17 07:24:23;;;;;;;99.75;39.53;;;;;;;;;;5094717;28;20057;-74
2020/12/17 07:26:51;;;;;;;98.38;35.53;;;;;;;;;;5094458;28;20030;-74
2020/12/17 07:29:17;;;;;;;120.70;39.55;;;;;;;;;;5094442;28;20093;-74
2020/12/17 07:31:43;;;;;;;126.97;44.78;;;;;;;;;;5094256;28;20077;-72
2020/12/17 07:34:16;;;;;;;119.22;44.72;;;;;;;;;;5094192;28;20042;-73
2020/12/17 07:36:46;;;;;;;100.78;38.90;;;;;;;;;;5094403;28;20012;-73
2020/12/17 07:39:12;;;;;;;117.80;34.53;;;;;;;;;;5093903;28;20480;-73
2020/12/17 07:41:39;;;;;;;113.55;37.15;;;;;;;;;;5096166;28;20051;-73
2020/12/17 07:44:05;;;;;;;104.82;35.78;;;;;;;;;;5094559;28;20027;-73
2020/12/17 07:46:35;;;;;;;105.57;35.17;;;;;;;;;;5095584;28;20026;-73
2020/12/17 07:49:02;;;;;;;122.25;39.90;;;;;;;;;;5094035;28;20460;-72
2020/12/17 07:51:32;;;;;;;146.73;50.13;;;;;;;;;;5094099;28;20023;-73
2020/12/17 07:54:01;;;;;;;154.77;56.40;;;;;;;;;;5094994;28;20091;-72
2020/12/17 07:56:28;;;;;;;142.13;51.92;;;;;;;;;;5095544;28;20051;-73
2020/12/17 07:58:54;;;;;;;146.15;47.33;;;;;;;;;;5093478;28;20031;-73
2020/12/17 08:01:20;;;;;;;156.00;55.38;;;;;;;;;;5092840;28;20050;-73
2020/12/17 08:03:50;;;;;;;155.23;61.97;;;;;;;;;;5095770;28;20016;-74
2020/12/17 08:06:21;;;;;;;153.52;47.25;;;;;;;;;;5093905;28;20073;-72
2020/12/17 08:08:47;;;;;;;158.73;52.42;;;;;;;;;;5093244;28;20062;-72
2020/12/17 08:11:14;;;;;;;147.95;54.38;;;;;;;;;;5093783;28;20027;-73
2020/12/17 08:13:40;;;;;;;145.20;51.08;;;;;;;;;;5093792;28;20042;-74
2020/12/17 08:16:06;;;;;;;173.65;62.33;;;;;;;;;;5093500;28;20043;-74
2020/12/17 08:18:36;;;;;;;188.80;66.18;;;;;;;;;;5093299;28;20034;-72
2020/12/17 08:21:04;;;;;;;149.77;57.45;;;;;;;;;;5093632;28;20415;-74
2020/12/17 08:23:30;;;;;;;;;;;;;;;;;;5093558;28;20040;-75
2020/12/17 08:25:59;;;;;;;171.02;50.13;;;;;;;;;;5094813;28;19999;-74
2020/12/17 08:28:28;;;;;;;136.48;43.22;;;;;;;;;;5093043;28;20023;-73
2020/12/17 08:31:01;;;;;;;164.10;49.95;;;;;;;;;;5095281;28;20023;-73
2020/12/17 08:33:27;;;;;;;152.60;48.95;;;;;;;;;;5093194;28;20020;-72
2020/12/17 08:36:00;;;;;;;159.90;56.13;;;;;;;;;;5093100;28;20127;-73
2020/12/17 08:38:26;;;;;;;148.93;49.15;;;;;;;;;;5094645;28;20036;-72
2020/12/17 08:40:54;;;;;;;152.60;56.88;;;;;;;;;;5093258;28;20016;-73
2020/12/17 08:43:20;;;;;;;189.23;59.10;;;;;;;;;;5094484;28;20069;-73
2020/12/17 08:45:47;;;;;;;171.48;50.42;;;;;;;;;;5092953;28;20359;-73
2020/12/17 08:48:16;;;;;;;193.55;62.70;;;;;;;;;;5093203;28;20024;-71
2020/12/17 08:50:44;;;;;;;185.38;57.60;;;;;;;;;;5092761;28;20016;-75
2020/12/17 08:53:20;;;;;;;161.02;55.30;;;;;;;;;;5093066;28;20111;-73
2020/12/17 08:56:00;;;;;;;177.15;58.20;;;;;;;;;;5088780;28;20024;-72
2020/12/17 08:58:26;;;;;;;150.15;53.38;;;;;;;;;;5093563;28;20020;-74
2020/12/17 09:00:52;;;;;;;168.50;57.33;;;;;;;;;;5094371;28;20410;-76
2020/12/17 09:03:19;;;;;;;144.95;55.70;;;;;;;;;;5092515;28;20408;-75
2020/12/17 09:06:00;;;;;;;156.40;58.33;;;;;;;;;;5092775;28;20016;-76
2020/12/17 09:08:26;;;;;;;172.43;60.28;;;;;;;;;;5092798;28;20024;-76
2020/12/17 09:10:52;;;;;;;159.30;60.70;;;;;;;;;;5091792;28;20107;-76
2020/12/17 09:13:19;;;;;;;180.48;60.95;;;;;;;;;;5093721;28;20368;-75
2020/12/17 09:15:45;;;;;;;168.07;59.58;;;;;;;;;;5092672;28;20023;-74
2020/12/17 09:18:12;;;;;;;204.07;71.30;;;;;;;;;;5093094;28;20081;-75
2020/12/17 09:20:38;;;;;;;201.30;68.78;;;;;;;;;;5092464;28;20099;-73
2020/12/17 09:23:10;;;;;;;213.48;75.00;;;;;;;;;;5092205;28;20052;-72
2020/12/17 09:25:36;;;;;;;225.63;67.28;;;;;;;;;;5092189;28;20028;-73
2020/12/17 09:28:02;;;;;;;204.18;71.45;;;;;;;;;;5092359;28;20027;-74
2020/12/17 09:30:32;;;;;;;208.93;70.50;;;;;;;;;;5093531;28;20024;-70
2020/12/17 09:33:02;;;;;;;228.07;80.78;;;;;;;;;;5092177;28;20070;-72
2020/12/17 09:35:29;;;;;;;241.15;82.50;;;;;;;;;;5093993;28;20476;-70
2020/12/17 09:37:58;;;;;;;248.45;79.80;;;;;;;;;;5093523;28;20031;-73
2020/12/17 09:40:24;;;;;;;243.88;85.32;;;;;;;;;;5092089;28;20035;-73
2020/12/17 09:43:02;;;;;;;216.38;81.95;;;;;;;;;;5092471;28;20415;-71
2020/12/17 09:45:28;;;;;;;246.35;80.93;;;;;;;;;;5091966;28;20069;-72
2020/12/17 09:47:54;;;;;;;260.15;84.10;;;;;;;;;;5091903;28;20038;-74
2020/12/17 09:50:20;;;;;;;276.67;89.20;;;;;;;;;;5085931;28;20458;-74
2020/12/17 09:52:46;;;;;;;237.77;84.45;;;;;;;;;;5092400;28;20012;-74
2020/12/17 09:55:13;;;;;;;273.13;91.30;;;;;;;;;;5092208;28;20016;-72
2020/12/17 09:57:40;;;;;;;304.03;111.70;;;;;;;;;;5091741;28;20024;-76
2020/12/17 10:00:08;;;;;;;281.80;100.50;;;;;;;;;;5092226;28;20016;-72
2020/12/17 10:02:34;;;;;;;264.75;88.47;;;;;;;;;;5092065;28;20377;-73
2020/12/17 10:05:04;;;;;;;252.68;79.28;;;;;;;;;;5092232;28;20012;-75
2020/12/17 10:07:30;;;;;;;209.68;69.50;;;;;;;;;;5090870;28;20027;-77
2020/12/17 10:09:57;;;;;;;207.00;66.30;;;;;;;;;;5092187;28;20008;-78
2020/12/17 10:12:24;;;;;;;214.00;71.93;;;;;;;;;;5105966;28;20361;-76
2020/12/17 10:14:50;;;;;;;215.18;68.78;;;;;;;;;;5091499;28;20471;-76
2020/12/17 10:17:16;;;;;;;200.48;68.20;;;;;;;;;;5090928;28;20037;-78
2020/12/17 10:19:43;;;;;;;192.40;66.45;;;;;;;;;;5090339;28;20024;-78
2020/12/17 10:22:09;;;;;;;195.95;63.20;;;;;;;;;;5109140;28;20047;-78
2020/12/17 10:24:35;;;;;;;201.93;61.67;;;;;;;;;;5095435;28;20089;-73
2020/12/17 10:27:02;;;;;;;188.57;60.45;;;;;;;;;;5095595;28;20118;-75
2020/12/17 10:29:29;;;;;;;178.32;58.03;;;;;;;;;;5097003;28;20034;-76
2020/12/17 10:31:55;;;;;;;177.02;59.03;;;;;;;;;;5095269;28;20118;-76
2020/12/17 10:34:22;;;;;;;187.88;63.63;;;;;;;;;;5097316;28;20039;-78
2020/12/17 10:36:48;;;;;;;169.15;60.72;;;;;;;;;;5095348;28;20024;-73
2020/12/17 10:39:14;;;;;;;195.18;62.47;;;;;;;;;;5094743;28;20032;-76
2020/12/17 10:41:41;;;;;;;176.95;59.72;;;;;;;;;;5096452;28;20500;-76
2020/12/17 10:44:08;;;;;;;183.27;59.27;;;;;;;;;;5095764;28;20024;-73
2020/12/17 10:46:37;;;;;;;189.00;65.55;;;;;;;;;;5095803;28;20793;-73
2020/12/17 10:49:05;;;;;;;181.55;64.80;;;;;;;;;;5094744;28;20080;-74
2020/12/17 10:51:31;;;;;;;;;;;;;;;;;;5095496;28;20089;-77
2020/12/17 10:53:57;;;;;;;162.00;54.75;;;;;;;;;;5097024;28;19904;-75
2020/12/17 10:56:23;;;;;;;156.65;54.03;;;;;;;;;;5095018;28;20008;-78
2020/12/17 10:58:50;;;;;;;157.38;52.45;;;;;;;;;;5096390;28;20054;-78
2020/12/17 11:01:16;;;;;;;;;;;;;;;;;;5097019;28;20107;-78
2020/12/17 11:03:43;;;;;;;155.43;56.53;;;;;;;;;;5094865;28;19943;-78
2020/12/17 11:06:13;;;;;;;189.02;77.20;;;;;;;;;;5095743;28;20117;-79
2020/12/17 11:08:39;;;;;;;184.00;68.32;;;;;;;;;;5095993;28;20023;-78
2020/12/17 11:11:05;;;;;;;154.75;46.97;;;;;;;;;;5095309;28;20077;-76
2020/12/17 11:13:32;;;;;;;142.55;46.05;;;;;;;;;;5094849;28;20020;-76
2020/12/17 11:15:58;;;;;;;128.75;37.30;;;;;;;;;;5094655;28;20479;-77
2020/12/17 11:18:24;;;;;;;118.32;41.33;;;;;;;;;;5094295;28;20119;-79
2020/12/17 11:20:50;;;;;;;99.38;36.55;;;;;;;;;;5096509;28;20103;-76
2020/12/17 11:23:16;;;;;;;93.68;35.67;;;;;;;;;;5096033;28;20048;-78
2020/12/17 11:25:43;;;;;;;107.38;43.15;;;;;;;;;;5095011;28;20012;-78
2020/12/17 11:28:09;;;;;;;124.90;48.95;;;;;;;;;;5095786;28;20024;-76
2020/12/17 11:30:36;;;;;;;109.38;44.95;;;;;;;;;;5094245;28;20407;-78
2020/12/17 11:33:03;;;;;;;99.75;34.25;;;;;;;;;;5094653;28;20115;-76
2020/12/17 11:35:29;;;;;;;114.00;40.70;;;;;;;;;;5094495;28;20024;-73
2020/12/17 11:37:55;;;;;;;97.10;32.25;;;;;;;;;;5093968;28;20028;-75
2020/12/17 11:40:22;;;;;;;106.47;38.75;;;;;;;;;;5093309;28;20024;-74
2020/12/17 11:42:48;;;;;;;105.28;40.47;;;;;;;;;;5094266;28;20043;-74
2020/12/17 11:45:15;;;;;;;109.38;38.38;;;;;;;;;;5094986;28;20052;-75
2020/12/17 11:47:41;;;;;;;111.22;38.75;;;;;;;;;;5094119;28;20024;-72
2020/12/17 11:50:08;;;;;;;107.68;41.20;;;;;;;;;;5093756;28;20024;-73
2020/12/17 11:52:34;;;;;;;117.72;41.90;;;;;;;;;;5093842;28;20026;-76
2020/12/17 11:55:01;;;;;;;135.93;48.97;;;;;;;;;;5095070;28;20020;-74
2020/12/17 11:57:27;;;;;;;147.55;52.40;;;;;;;;;;5093828;28;20038;-74
2020/12/17 11:59:53;;;;;;;125.85;47.88;;;;;;;;;;5093325;28;20453;-73
2020/12/17 12:02:20;;;;;;;123.35;46.35;;;;;;;;;;5093691;28;20017;-75
2020/12/17 12:04:46;;;;;;;112.30;44.15;;;;;;;;;;5093767;28;20058;-75
2020/12/17 12:07:12;;;;;;;133.13;49.42;;;;;;;;;;5094971;28;20024;-74
2020/12/17 12:09:38;;;;;;;134.73;53.38;;;;;;;;;;5094134;28;20024;-76
2020/12/17 12:12:04;;;;;;;140.70;52.25;;;;;;;;;;5094254;28;20232;-75
2020/12/17 12:14:30;;;;;;;124.20;51.80;;;;;;;;;;5094408;28;20056;-75
2020/12/17 12:16:56;;;;;;;148.10;58.25;;;;;;;;;;5094499;28;20124;-77
2020/12/17 12:19:23;;;;;;;128.13;54.88;;;;;;;;;;5093748;28;20150;-76
2020/12/17 12:21:52;;;;;;;181.23;71.97;;;;;;;;;;5093987;28;20012;-76
2020/12/17 12:24:18;;;;;;;129.52;51.55;;;;;;;;;;5094145;28;20284;-77
2020/12/17 12:26:44;;;;;;;121.93;52.85;;;;;;;;;;5093500;28;20494;-77
2020/12/17 12:29:11;;;;;;;133.93;54.95;;;;;;;;;;5095129;28;20072;-75
2020/12/17 12:31:37;;;;;;;194.80;90.10;;;;;;;;;;5093614;28;20028;-81
2020/12/17 12:34:03;;;;;;;175.30;70.57;;;;;;;;;;5094351;28;20047;-77
2020/12/17 12:36:30;;;;;;;175.23;70.57;;;;;;;;;;5095083;28;20048;-77
2020/12/17 12:38:56;;;;;;;176.48;66.03;;;;;;;;;;5097155;28;20368;-75
2020/12/17 12:41:22;;;;;;;196.07;67.97;;;;;;;;;;5093741;28;20020;-74
2020/12/17 12:43:48;;;;;;;194.80;75.55;;;;;;;;;;5110156;28;20376;-78
2020/12/17 12:46:18;;;;;;;144.38;55.97;;;;;;;;;;5095504;28;20016;-78
2020/12/17 12:48:44;;;;;;;146.45;55.70;;;;;;;;;;5094585;28;20028;-76
2020/12/17 12:51:11;;;;;;;149.75;54.38;;;;;;;;;;5094410;28;20019;-75
2020/12/17 12:53:37;;;;;;;151.77;56.88;;;;;;;;;;5093146;28;20012;-75
2020/12/17 12:56:03;;;;;;;181.85;68.80;;;;;;;;;;5092724;28;20019;-77
2020/12/17 12:58:29;;;;;;;161.10;61.88;;;;;;;;;;5092836;28;20027;-77
2020/12/17 13:00:55;;;;;;;152.88;63.72;;;;;;;;;;5092965;28;20016;-77
2020/12/17 13:03:22;;;;;;;160.35;61.78;;;;;;;;;;5092477;28;20023;-76
2020/12/17 13:05:48;;;;;;;182.85;67.57;;;;;;;;;;5091854;28;20012;-75
2020/12/17 13:08:14;;;;;;;190.80;70.55;;;;;;;;;;5092359;28;20123;-74
2020/12/17 13:10:41;;;;;;;157.18;65.38;;;;;;;;;;5094526;28;20039;-74
2020/12/17 13:13:09;;;;;;;157.88;65.13;;;;;;;;;;5093774;28;20091;-74
2020/12/17 13:15:39;;;;;;;190.38;69.63;;;;;;;;;;5092554;28;20465;-74
2020/12/17 13:18:05;;;;;;;160.00;61.13;;;;;;;;;;5093680;28;20460;-74
2020/12/17 13:20:31;;;;;;;154.07;56.88;;;;;;;;;;5093922;28;20028;-74
2020/12/17 13:22:57;;;;;;;151.38;56.78;;;;;;;;;;5093205;28;20350;-74
2020/12/17 13:25:24;;;;;;;168.95;57.10;;;;;;;;;;5092482;28;20580;-73
2020/12/17 13:27:51;;;;;;;147.52;54.70;;;;;;;;;;5093587;28;20460;-74
2020/12/17 13:30:17;;;;;;;174.38;74.07;;;;;;;;;;5093036;28;20065;-75
2020/12/17 13:32:44;;;;;;;138.88;54.58;;;;;;;;;;5093691;28;20368;-73
2020/12/17 13:35:10;;;;;;;120.23;49.87;;;;;;;;;;5091655;28;20471;-73
2020/12/17 13:37:36;;;;;;;125.00;49.42;;;;;;;;;;5088888;28;20032;-73
2020/12/17 13:40:04;;;;;;;105.03;40.55;;;;;;;;;;5089183;28;20017;-75
2020/12/17 13:42:30;;;;;;;107.47;37.42;;;;;;;;;;5090512;28;20016;-73
2020/12/17 13:44:56;;;;;;;141.68;41.75;;;;;;;;;;5090273;28;20016;-75
2020/12/17 13:47:22;;;;;;;144.82;48.05;;;;;;;;;;5090269;28;20107;-73
2020/12/17 13:49:48;;;;;;;125.07;41.85;;;;;;;;;;5090031;28;20020;-75
2020/12/17 13:52:14;;;;;;;119.50;41.92;;;;;;;;;;5089799;28;20024;-74
2020/12/17 13:54:41;;;;;;;135.25;47.13;;;;;;;;;;5090658;28;20016;-73
2020/12/17 13:57:07;;;;;;;195.00;70.93;;;;;;;;;;5091800;28;20056;-74
2020/12/17 13:59:33;;;;;;;206.88;80.40;;;;;;;;;;5095130;28;20016;-73
2020/12/17 14:01:59;;;;;;;138.60;52.15;;;;;;;;;;5094880;28;20027;-73
2020/12/17 14:04:26;;;;;;;193.43;83.10;;;;;;;;;;5094200;28;20078;-74